Terminal Aerodrome Forecast
Issued by NWS Knoxville/Tri Cities, TN

Home | Current Version | Previous Version | Text Only | Print | Product List | Glossary On
Versions: 1 2 3 4 5 6 7 8 9 10 11 12 13 14 15 16 17 18 19 20 21 22 23 24
000
FTUS44 KMRX 261735
TAFTYS
TAF
KTYS 261735Z 2618/2718 19007KT P6SM VCTS SCT025 BKN035CB
      TEMPO 2622/2701 4SM -TSRA OVC025CB
     FM270100 00000KT P6SM BKN045
     FM271200 00000KT 3SM BR BKN015 BKN035
     FM271300 00000KT P6SM BKN040
     FM271600 VRB04KT P6SM VCTS SCT025 BKN045CB=

USA.gov is the U.S. government's official web portal to all federal, state and local government web resources and services.